Accueil
METAR-TAF:

METAR-TAF

Aéroports :

Aéroport de Valladolid

Valladolid, Espagne

latitude: 41-43N, longitude: 004-51W, altitude: 849 m

Observation

Le bulletin a été fait il y a 3 heures et 32 minutes, à 19:30 UTC
Vent 18 kt de est/nord-est
Température 17°C
Humidité 63%
Pression 1022 hPa
Visibilité 10 km ou plus
pas de nuages en-dessous de 1500 mètres et pas de cumulonimbus.

METAR: LEVD 171930Z 06018KT CAVOK 17/10 Q1022

Heure: 01:02 (23:02 UTC)

Prévision

Le bulletin a été fait il y a 6 heures et 2 minutes, à 17:00 UTC
Prévision valable du 17 à 18 UTC au 18 à 18 UTC
Vent 15 kt de nord-est
Visibilité 10 km ou plus
pas de nuages en-dessous de 1500 mètres et pas de cumulonimbus.
Temporairement
du 17 à 18 UTC au 17 à 21 UTC
Vent 15 kt de nord-est avec des rafales jusqu'à 25 kt

TAF: LEVD 171700Z 1718/1818 05015KT CAVOK TX27/1815Z TN09/1806Z TEMPO 1718/1721 05015G25KT

Observations et prévisions météorologiques de plus de 4000 aéroports (messages METAR et TAF).

Les stations disponibles sont représentées par des disques jaunes et rouges sur la carte.

Passer la souris dessus pour voir le nom de la station.

Cliquer dessus pour voir les observations et prévisions météorologiques.

Pour changer de carte: cliquez sur les boutons verts avec une croix noire pour zoomer, sur le bouton vert avec un tiret pour effectuer un zoom arrière, ou sur les flèches vertes pour les cartes adjacentes.


METAR-TAF: